createdAt,value
2017-12-02T00:00:33.128Z,0.90
2017-12-02T00:02:59.457Z,0.90
2017-12-02T00:05:25.703Z,0.90
2017-12-02T00:07:51.913Z,1.00
2017-12-02T00:10:18.179Z,0.90
2017-12-02T00:12:45.165Z,0.90
2017-12-02T00:15:11.400Z,0.80
2017-12-02T00:17:37.658Z,0.80
2017-12-02T00:20:03.894Z,2.70
2017-12-02T00:22:30.172Z,0.80
2017-12-02T00:24:56.391Z,0.80
2017-12-02T00:27:22.640Z,0.80
2017-12-02T00:29:48.875Z,0.70
2017-12-02T00:32:15.509Z,0.80
2017-12-02T00:34:42.132Z,0.70
2017-12-02T00:37:09.105Z,0.70
2017-12-02T00:39:35.392Z,0.70
2017-12-02T00:42:02.394Z,0.70
2017-12-02T00:44:28.570Z,0.70
2017-12-02T00:46:55.522Z,0.60
2017-12-02T00:49:22.480Z,0.60
2017-12-02T00:51:48.676Z,0.60
2017-12-02T00:54:14.843Z,0.70
2017-12-02T00:56:41.075Z,0.70
2017-12-02T00:59:07.264Z,0.70
2017-12-02T01:01:33.434Z,0.70
2017-12-02T01:03:59.667Z,0.70
2017-12-02T01:06:25.881Z,0.70
2017-12-02T01:08:52.052Z,0.70
2017-12-02T01:11:18.313Z,0.90
2017-12-02T01:13:44.533Z,0.70
2017-12-02T01:16:10.816Z,0.70
2017-12-02T01:18:37.010Z,0.60
2017-12-02T01:21:03.296Z,0.60
2017-12-02T01:23:30.274Z,0.60
2017-12-02T01:25:56.452Z,0.60
2017-12-02T01:28:22.638Z,0.70
2017-12-02T01:30:49.637Z,0.50
2017-12-02T01:33:15.811Z,0.50
2017-12-02T01:35:42.743Z,0.50
2017-12-02T01:38:08.914Z,0.40
2017-12-02T01:40:35.108Z,0.50
2017-12-02T01:43:01.314Z,0.50
2017-12-02T01:45:27.480Z,0.50
2017-12-02T01:47:54.499Z,0.50
2017-12-02T01:50:20.630Z,0.50
2017-12-02T01:52:46.849Z,0.50
2017-12-02T01:55:13.090Z,0.60
2017-12-02T01:57:39.298Z,0.50
2017-12-02T02:00:06.319Z,0.50
2017-12-02T02:02:32.541Z,0.60
2017-12-02T02:04:58.755Z,0.60
2017-12-02T02:07:24.965Z,0.60
2017-12-02T02:09:51.902Z,0.50
2017-12-02T02:12:18.068Z,0.50
2017-12-02T02:14:44.271Z,0.60
2017-12-02T02:57:15.725Z,0.40
2017-12-02T02:59:47.155Z,0.40
2017-12-02T03:02:14.154Z,0.30
2017-12-02T03:04:40.337Z,0.30
2017-12-02T03:07:07.295Z,0.30
2017-12-02T03:09:33.534Z,0.30
2017-12-02T03:11:59.790Z,0.30
2017-12-02T03:14:26.079Z,0.30
2017-12-02T03:19:41.551Z,0.30
2017-12-02T03:22:07.771Z,0.30
2017-12-02T03:24:34.080Z,0.30
2017-12-02T03:27:00.331Z,0.30
2017-12-02T03:29:26.536Z,0.30
2017-12-02T03:31:53.469Z,0.30
2017-12-02T03:34:19.730Z,0.30
2017-12-02T03:36:45.936Z,0.30
2017-12-02T03:39:12.144Z,0.30
2017-12-02T03:41:38.347Z,0.30
2017-12-02T03:44:05.310Z,0.30
2017-12-02T03:46:31.521Z,0.30
2017-12-02T03:48:58.418Z,0.30
2017-12-02T03:51:24.641Z,0.30
2017-12-02T03:53:50.853Z,0.30
2017-12-02T03:56:17.078Z,0.30
2017-12-02T03:58:43.340Z,0.30
2017-12-02T04:01:09.537Z,0.30
2017-12-02T04:03:35.866Z,0.40
2017-12-02T04:06:02.123Z,0.40
2017-12-02T04:08:28.352Z,0.40
2017-12-02T04:10:54.538Z,0.40
2017-12-02T04:13:20.782Z,0.40
2017-12-02T04:15:46.992Z,0.40
2017-12-02T04:18:14.002Z,0.40
2017-12-02T04:20:41.305Z,0.40
2017-12-02T04:23:07.580Z,0.50
2017-12-02T04:25:34.003Z,0.40
2017-12-02T04:28:00.273Z,0.40
2017-12-02T04:30:27.358Z,0.40
2017-12-02T04:32:54.256Z,0.40
2017-12-02T04:35:20.462Z,0.40
2017-12-02T04:37:46.625Z,0.40
2017-12-02T04:40:13.730Z,0.40
2017-12-02T04:42:40.920Z,0.40
2017-12-02T04:45:07.875Z,0.40
2017-12-02T04:47:34.831Z,0.40
2017-12-02T04:50:01.058Z,0.40
2017-12-02T04:52:28.057Z,0.40
2017-12-02T04:54:54.265Z,0.40
2017-12-02T04:57:20.468Z,0.40
2017-12-02T04:59:46.677Z,0.40
2017-12-02T05:02:13.665Z,0.40
2017-12-02T05:04:39.889Z,0.40
2017-12-02T05:07:07.005Z,0.40
2017-12-02T05:09:34.029Z,0.40
2017-12-02T05:12:00.244Z,0.30
2017-12-02T05:14:26.435Z,0.40
2017-12-02T05:16:52.650Z,0.40
2017-12-02T05:19:19.635Z,0.30
2017-12-02T05:21:45.850Z,0.30
2017-12-02T05:24:12.154Z,0.20
2017-12-02T05:26:38.372Z,0.20
2017-12-02T05:29:05.323Z,0.20
2017-12-02T05:31:32.281Z,0.20
2017-12-02T05:33:58.493Z,0.20
2017-12-02T05:36:25.490Z,0.20
2017-12-02T05:38:51.684Z,0.10
2017-12-02T05:41:18.643Z,0.10
2017-12-02T05:43:44.812Z,0.10
2017-12-02T05:46:11.046Z,0.40
2017-12-02T05:48:37.264Z,0.00
2017-12-02T05:51:03.512Z,0.00
2017-12-02T05:53:29.694Z,0.10
2017-12-02T05:55:55.942Z,0.10
2017-12-02T05:58:22.144Z,0.50
2017-12-02T06:00:48.328Z,0.10
2017-12-02T06:03:15.542Z,0.10
2017-12-02T06:05:41.819Z,0.10
2017-12-02T06:08:08.799Z,0.10
2017-12-02T06:10:35.030Z,0.10
2017-12-02T06:13:01.212Z,0.10
2017-12-02T06:15:27.512Z,0.00
2017-12-02T06:17:53.714Z,0.00
2017-12-02T06:20:19.956Z,0.10
2017-12-02T06:22:46.190Z,0.10
2017-12-02T06:25:12.505Z,0.10
2017-12-02T06:27:38.718Z,0.10
2017-12-02T06:30:05.802Z,0.10
2017-12-02T06:32:32.013Z,0.00
2017-12-02T06:34:58.201Z,0.00
2017-12-02T06:37:24.432Z,0.00
2017-12-02T06:39:52.283Z,0.00
2017-12-02T06:42:18.551Z,-0.10
2017-12-02T06:44:45.535Z,0.00
2017-12-02T06:47:11.797Z,0.10
2017-12-02T06:49:38.013Z,0.00
2017-12-02T06:52:04.324Z,0.00
2017-12-02T06:54:30.500Z,0.00
2017-12-02T06:56:57.474Z,0.00
2017-12-02T06:59:23.827Z,0.00
2017-12-02T07:01:51.443Z,0.00
2017-12-02T07:04:17.755Z,0.10
2017-12-02T07:06:44.005Z,0.10
2017-12-02T07:09:10.997Z,0.10
2017-12-02T07:11:37.265Z,0.10
2017-12-02T07:14:03.696Z,0.10
2017-12-02T07:16:29.964Z,0.10
2017-12-02T07:18:56.384Z,0.10
2017-12-02T07:21:23.505Z,0.20
2017-12-02T07:23:49.792Z,0.10
2017-12-02T07:26:17.859Z,0.10
2017-12-02T07:28:44.210Z,0.20
2017-12-02T07:31:11.530Z,0.20
2017-12-02T07:33:38.741Z,0.20
2017-12-02T07:36:05.730Z,0.20
2017-12-02T07:38:32.643Z,0.20
2017-12-02T07:40:58.925Z,0.20
2017-12-02T07:43:25.136Z,0.10
2017-12-02T07:45:52.443Z,0.10
2017-12-02T07:48:18.746Z,0.10
2017-12-02T08:00:30.875Z,0.30
2017-12-02T08:02:57.832Z,0.30
2017-12-02T08:05:24.815Z,0.30
2017-12-02T08:07:51.037Z,0.30
2017-12-02T08:10:17.282Z,0.40
2017-12-02T08:12:44.999Z,0.50
2017-12-02T08:15:11.972Z,0.70
2017-12-02T08:17:38.209Z,0.70
2017-12-02T08:20:04.424Z,0.70
2017-12-02T08:22:32.317Z,1.10
2017-12-02T08:24:58.624Z,1.20
2017-12-02T08:27:24.890Z,1.30
2017-12-02T08:29:51.534Z,1.50
2017-12-02T08:32:17.828Z,1.60
2017-12-02T08:34:44.188Z,1.60
2017-12-02T08:37:10.963Z,1.60
2017-12-02T08:39:37.906Z,1.70
2017-12-02T08:42:04.870Z,1.70
2017-12-02T08:44:31.120Z,1.70
2017-12-02T08:46:57.314Z,1.80
2017-12-02T08:49:24.283Z,1.80
2017-12-02T08:51:50.544Z,1.80
2017-12-02T08:54:16.759Z,1.70
2017-12-02T08:56:43.162Z,1.70
2017-12-02T08:59:10.192Z,1.60
2017-12-02T09:01:36.391Z,1.60
2017-12-02T09:04:02.683Z,1.80
2017-12-02T09:06:28.922Z,2.10
2017-12-02T09:08:55.183Z,2.20
2017-12-02T09:11:21.423Z,2.40
2017-12-02T09:13:47.724Z,2.60
2017-12-02T09:16:14.013Z,2.60
2017-12-02T09:18:42.014Z,2.20
2017-12-02T09:21:08.305Z,1.80
2017-12-02T09:23:34.598Z,1.80
2017-12-02T09:26:01.315Z,1.80
2017-12-02T09:28:28.558Z,2.10
2017-12-02T09:30:55.183Z,2.20
2017-12-02T09:33:21.496Z,2.00
2017-12-02T09:35:48.725Z,2.30
2017-12-02T09:38:14.990Z,2.50
2017-12-02T09:40:42.793Z,2.80
2017-12-02T09:43:09.106Z,2.80
2017-12-02T09:45:37.114Z,3.00
2017-12-02T09:48:04.496Z,2.80
2017-12-02T09:50:33.569Z,3.00
2017-12-02T09:53:00.326Z,3.10
2017-12-02T09:55:27.343Z,3.40
2017-12-02T09:57:53.924Z,3.40
2017-12-02T10:00:20.956Z,3.80
2017-12-02T10:02:47.990Z,3.80
2017-12-02T10:05:14.235Z,4.20
2017-12-02T10:07:41.933Z,5.00
2017-12-02T10:10:08.183Z,5.60
2017-12-02T10:12:34.415Z,5.60
2017-12-02T10:15:01.904Z,6.10
2017-12-02T10:17:28.125Z,6.50
2017-12-02T10:19:54.409Z,6.60
2017-12-02T10:22:21.426Z,6.80
2017-12-02T10:24:48.301Z,6.90
2017-12-02T10:27:15.274Z,6.80
2017-12-02T10:29:41.526Z,6.80
2017-12-02T10:32:07.792Z,7.00
2017-12-02T10:34:35.537Z,6.90
2017-12-02T10:37:01.770Z,7.40
2017-12-02T10:39:28.109Z,6.80
2017-12-02T10:41:54.413Z,6.80
2017-12-02T10:44:21.703Z,6.80
2017-12-02T10:46:48.702Z,6.70
2017-12-02T10:49:14.958Z,6.40
2017-12-02T10:51:41.250Z,6.40
2017-12-02T10:54:07.518Z,5.70
2017-12-02T10:56:33.815Z,5.70
2017-12-02T10:59:00.934Z,5.60
2017-12-02T11:01:29.237Z,5.80
2017-12-02T11:03:55.512Z,6.80
2017-12-02T11:06:22.211Z,7.90
2017-12-02T11:08:48.696Z,8.70
2017-12-02T11:11:15.237Z,8.70
2017-12-02T11:13:43.120Z,10.30
2017-12-02T11:16:11.202Z,10.00
2017-12-02T11:28:22.491Z,8.40
2017-12-02T11:30:49.607Z,7.60
2017-12-02T11:33:15.826Z,6.90
2017-12-02T11:35:42.047Z,6.20
2017-12-02T11:38:09.076Z,5.40
2017-12-02T11:40:36.058Z,5.00
2017-12-02T11:43:02.317Z,4.60
2017-12-02T11:45:28.519Z,4.30
2017-12-02T11:47:54.751Z,4.20
2017-12-02T11:50:21.617Z,3.90
2017-12-02T11:52:47.929Z,3.90
2017-12-02T11:55:14.161Z,3.30
2017-12-02T11:57:41.497Z,3.20
2017-12-02T12:00:08.246Z,3.00
2017-12-02T12:02:35.299Z,3.00
2017-12-02T12:08:33.290Z,3.30
2017-12-02T12:10:59.519Z,3.50
2017-12-02T12:13:25.838Z,3.60
2017-12-02T12:15:52.951Z,3.50
2017-12-02T12:18:19.170Z,3.50
2017-12-02T12:20:45.420Z,3.50
2017-12-02T12:23:13.142Z,3.50
2017-12-02T12:25:39.388Z,3.50
2017-12-02T12:28:06.553Z,3.30
2017-12-02T12:30:33.723Z,3.40
2017-12-02T12:33:00.085Z,3.50
2017-12-02T12:35:26.982Z,3.50
2017-12-02T12:37:53.163Z,3.60
2017-12-02T12:40:19.420Z,3.50
2017-12-02T12:42:46.006Z,3.60
2017-12-02T12:45:13.564Z,3.60
2017-12-02T12:47:40.533Z,3.50
2017-12-02T12:50:06.718Z,3.50
2017-12-02T12:52:33.339Z,3.30
2017-12-02T12:54:59.546Z,3.30
2017-12-02T12:57:25.887Z,3.40
2017-12-02T12:59:53.169Z,3.50
2017-12-02T13:02:19.411Z,3.50
2017-12-02T13:04:46.440Z,3.60
2017-12-02T13:07:12.753Z,3.80
2017-12-02T13:09:40.034Z,4.10
2017-12-02T13:12:07.173Z,4.20
2017-12-02T13:14:33.421Z,4.70
2017-12-02T13:17:00.534Z,4.50
2017-12-02T13:19:26.743Z,4.60
2017-12-02T13:21:53.099Z,4.70
2017-12-02T13:24:20.149Z,4.70
2017-12-02T13:26:47.641Z,4.60
2017-12-02T13:29:14.282Z,4.40
2017-12-02T13:31:41.286Z,4.50
2017-12-02T13:34:07.504Z,4.50
2017-12-02T13:36:33.807Z,4.40
2017-12-02T13:39:00.415Z,4.20
2017-12-02T13:41:27.550Z,4.10
2017-12-02T13:43:53.795Z,3.90
2017-12-02T13:46:20.182Z,2.30
2017-12-02T13:48:46.543Z,3.90
2017-12-02T13:51:12.765Z,4.00
2017-12-02T13:53:39.118Z,4.00
2017-12-02T13:56:05.404Z,4.00
2017-12-02T13:58:31.671Z,3.90
2017-12-02T14:00:57.930Z,3.80
2017-12-02T14:03:24.205Z,3.80
2017-12-02T14:05:50.421Z,3.70
2017-12-02T14:08:17.276Z,3.60
2017-12-02T14:10:43.587Z,3.60
2017-12-02T14:13:10.234Z,3.50
2017-12-02T14:15:37.274Z,3.50
2017-12-02T14:18:03.685Z,3.70
2017-12-02T14:20:30.669Z,3.70
2017-12-02T14:22:57.304Z,3.70
2017-12-02T14:25:23.514Z,3.60
2017-12-02T14:27:49.758Z,3.60
2017-12-02T14:30:16.067Z,3.40
2017-12-02T14:32:42.359Z,3.50
2017-12-02T14:35:08.620Z,3.50
2017-12-02T14:37:34.824Z,3.30
2017-12-02T14:40:01.037Z,3.20
2017-12-02T14:42:27.413Z,3.00
2017-12-02T14:44:53.933Z,2.80
2017-12-02T14:47:20.863Z,2.70
2017-12-02T14:49:47.145Z,2.70
2017-12-02T14:52:13.376Z,2.60
2017-12-02T14:54:39.576Z,2.70
2017-12-02T14:57:05.800Z,2.60
2017-12-02T14:59:33.641Z,2.70
2017-12-02T15:01:59.924Z,2.70
2017-12-02T15:04:26.113Z,2.80
2017-12-02T15:06:52.376Z,2.80
2017-12-02T15:09:18.610Z,2.70
2017-12-02T15:11:44.845Z,2.70
2017-12-02T15:14:11.182Z,2.90
2017-12-02T15:16:37.459Z,2.90
2017-12-02T15:19:04.420Z,2.80
2017-12-02T15:21:32.398Z,2.80
2017-12-02T15:23:58.614Z,2.80
2017-12-02T15:26:25.619Z,2.80
2017-12-02T15:28:52.239Z,2.80
2017-12-02T15:31:18.426Z,2.80
2017-12-02T15:33:44.628Z,2.70
2017-12-02T15:36:10.879Z,2.70
2017-12-02T15:38:37.188Z,2.70
2017-12-02T15:41:03.419Z,2.70
2017-12-02T15:43:29.665Z,2.70
2017-12-02T15:45:55.915Z,2.60
2017-12-02T15:48:22.924Z,2.70
2017-12-02T15:50:49.226Z,2.70
2017-12-02T15:53:15.485Z,2.70
2017-12-02T15:55:41.719Z,2.60
2017-12-02T15:58:08.038Z,2.40
2017-12-02T16:00:34.425Z,2.60
2017-12-02T16:03:00.634Z,2.50
2017-12-02T16:05:26.879Z,2.50
2017-12-02T16:07:53.883Z,2.50
2017-12-02T16:10:20.143Z,2.50
2017-12-02T16:12:47.255Z,2.50
2017-12-02T16:15:13.501Z,2.50
2017-12-02T16:17:39.873Z,2.50
2017-12-02T16:20:06.194Z,2.50
2017-12-02T16:32:18.193Z,2.50
2017-12-02T16:34:44.444Z,2.60
2017-12-02T16:37:10.655Z,2.60
2017-12-02T16:39:36.928Z,2.50
2017-12-02T16:42:03.972Z,2.50
2017-12-02T16:44:30.203Z,2.50
2017-12-02T16:46:57.352Z,2.50
2017-12-02T16:49:23.584Z,2.60
2017-12-02T17:01:34.929Z,2.50
2017-12-02T17:04:02.205Z,2.50
2017-12-02T17:06:29.226Z,2.40
2017-12-02T17:08:56.203Z,2.50
2017-12-02T17:11:23.178Z,2.50
2017-12-02T17:13:49.503Z,2.50
2017-12-02T17:16:16.590Z,2.50
2017-12-02T17:18:42.848Z,2.50
2017-12-02T17:21:09.091Z,2.50
2017-12-02T17:23:36.481Z,2.50
2017-12-02T17:26:02.774Z,2.50
2017-12-02T17:28:29.744Z,2.60
2017-12-02T17:30:55.956Z,2.60
2017-12-02T17:33:22.923Z,2.50
2017-12-02T17:35:49.162Z,2.50
2017-12-02T17:38:15.443Z,2.60
2017-12-02T17:40:41.704Z,2.50
2017-12-02T17:43:08.043Z,2.50
2017-12-02T17:45:34.307Z,2.50
2017-12-02T17:48:00.603Z,2.30
2017-12-02T17:50:26.901Z,2.50
2017-12-02T17:52:53.827Z,2.50
2017-12-02T17:55:20.058Z,2.50
2017-12-02T17:57:46.342Z,2.50
2017-12-02T18:00:12.591Z,2.60
2017-12-02T18:02:38.836Z,2.60
2017-12-02T18:05:05.123Z,2.60
2017-12-02T18:07:31.376Z,2.60
2017-12-02T18:09:57.580Z,2.60
2017-12-02T18:12:23.835Z,2.60
2017-12-02T18:14:50.984Z,2.60
2017-12-02T18:17:17.343Z,2.50
2017-12-02T18:19:43.691Z,2.50
2017-12-02T18:22:11.628Z,2.50
2017-12-02T18:24:38.798Z,2.50
2017-12-02T18:27:05.182Z,2.50
2017-12-02T18:29:31.465Z,2.50
2017-12-02T18:31:57.716Z,2.50
2017-12-02T18:34:24.707Z,2.40
2017-12-02T18:36:50.937Z,2.50
2017-12-02T18:39:17.212Z,2.50
2017-12-02T18:41:43.484Z,2.50
2017-12-02T18:44:09.721Z,2.40
2017-12-02T18:46:36.050Z,2.40
2017-12-02T18:49:02.361Z,2.40
2017-12-02T18:51:29.634Z,2.50
2017-12-02T18:53:55.925Z,2.40
2017-12-02T18:56:22.959Z,2.40
2017-12-02T18:58:49.247Z,2.40
2017-12-02T19:01:15.537Z,2.40
2017-12-02T19:03:43.474Z,2.50
2017-12-02T19:06:09.659Z,2.50
2017-12-02T19:08:36.030Z,2.50
2017-12-02T19:11:02.310Z,2.40
2017-12-02T19:13:28.591Z,2.40
2017-12-02T19:15:54.800Z,2.50
2017-12-02T19:18:20.996Z,2.30
2017-12-02T19:20:47.966Z,2.40
2017-12-02T19:23:14.298Z,2.40
2017-12-02T19:25:40.551Z,2.30
2017-12-02T19:28:06.742Z,2.30
2017-12-02T19:30:32.960Z,2.20
2017-12-02T19:32:59.134Z,2.30
2017-12-02T19:35:25.382Z,2.30
2017-12-02T19:47:42.400Z,2.20
2017-12-02T19:50:08.727Z,2.20
2017-12-02T19:52:35.714Z,2.20
2017-12-02T19:55:01.964Z,2.30
2017-12-02T19:57:28.588Z,2.20
2017-12-02T19:59:54.913Z,2.20
2017-12-02T20:02:21.176Z,2.20
2017-12-02T20:04:47.462Z,2.20
2017-12-02T20:07:13.714Z,2.10
2017-12-02T20:09:40.046Z,2.10
2017-12-02T20:12:06.364Z,2.20
2017-12-02T20:14:32.743Z,2.20
2017-12-02T20:16:58.995Z,2.20
2017-12-02T20:19:25.391Z,2.20
2017-12-02T20:21:51.771Z,2.20
2017-12-02T20:24:19.449Z,2.30
2017-12-02T20:26:46.416Z,2.20
2017-12-02T20:29:12.661Z,2.20
2017-12-02T20:31:38.999Z,2.20
2017-12-02T20:34:06.037Z,2.10
2017-12-02T20:36:32.332Z,2.10
2017-12-02T20:38:58.682Z,2.00
2017-12-02T20:41:24.924Z,2.00
2017-12-02T20:43:51.155Z,2.10
2017-12-02T20:46:17.467Z,2.10
2017-12-02T20:48:46.881Z,2.10
2017-12-02T20:51:13.170Z,2.10
2017-12-02T20:53:45.488Z,2.10
2017-12-02T20:56:12.079Z,2.00
2017-12-02T20:58:38.656Z,2.10
2017-12-02T21:01:05.203Z,2.10
2017-12-02T21:03:31.624Z,2.00
2017-12-02T21:05:57.939Z,2.10
2017-12-02T21:08:24.233Z,2.10
2017-12-02T21:10:51.182Z,2.10
2017-12-02T21:13:18.341Z,2.10
2017-12-02T21:15:45.356Z,2.10
2017-12-02T21:18:11.659Z,2.10
2017-12-02T21:20:37.933Z,2.00
2017-12-02T21:23:05.028Z,2.00
2017-12-02T21:35:17.448Z,2.10
2017-12-02T21:37:44.421Z,2.10
2017-12-02T21:40:11.068Z,2.00
2017-12-02T21:42:37.343Z,2.10
2017-12-02T21:45:03.710Z,2.10
2017-12-02T21:47:31.965Z,2.10
2017-12-02T21:49:58.258Z,2.10
2017-12-02T21:52:24.590Z,2.10
2017-12-02T21:54:51.861Z,2.10
2017-12-02T21:57:18.122Z,2.10
2017-12-02T21:59:44.903Z,2.20
2017-12-02T22:02:11.184Z,2.20
2017-12-02T22:04:38.304Z,2.20
2017-12-02T22:07:04.934Z,2.20
2017-12-02T22:09:31.351Z,2.20
2017-12-02T22:11:57.695Z,2.20
2017-12-02T22:14:23.979Z,2.30
2017-12-02T22:16:50.969Z,2.20
2017-12-02T22:19:17.415Z,2.20
2017-12-02T22:21:43.831Z,2.20
2017-12-02T22:24:23.441Z,2.20
2017-12-02T22:26:49.891Z,2.10
2017-12-02T22:29:16.165Z,2.20
2017-12-02T22:31:43.271Z,2.20
2017-12-02T22:34:09.522Z,2.20
2017-12-02T22:36:36.511Z,2.20
2017-12-02T22:39:02.857Z,2.20
2017-12-02T22:41:30.879Z,2.20
2017-12-02T22:43:57.109Z,2.20
2017-12-02T22:56:08.448Z,2.20
2017-12-02T22:58:34.716Z,2.20
2017-12-02T23:01:00.912Z,2.10
2017-12-02T23:03:27.262Z,2.10
2017-12-02T23:05:53.506Z,2.10
2017-12-02T23:08:19.801Z,2.20
2017-12-02T23:10:46.104Z,2.20
2017-12-02T23:13:12.781Z,2.10
2017-12-02T23:15:39.037Z,2.10
2017-12-02T23:18:05.264Z,2.20
2017-12-02T23:20:31.528Z,2.20
2017-12-02T23:22:58.586Z,2.20
2017-12-02T23:25:24.824Z,2.20
2017-12-02T23:27:51.131Z,2.20
2017-12-02T23:30:17.348Z,2.20
2017-12-02T23:32:43.696Z,2.20
2017-12-02T23:35:10.775Z,2.20
2017-12-02T23:37:37.063Z,2.30
2017-12-02T23:40:04.418Z,2.20
2017-12-02T23:42:31.383Z,2.20
2017-12-02T23:44:58.511Z,2.20
2017-12-02T23:57:14.826Z,2.20
